Howard, Kansas
Current Conditions -  °F | °C
As of 7:15 AM on Saturday 25 Oct 2014 (Local Time) from KIDP Reporting Station
Moderate Fog Moderate Fog  
Wind Chill: 55°   Ceiling: 200
Heat Index: 55°   Visibility: 0.25mi
Dew Point: 54°   Wind: 5mph
Humidity: 94%   Direction: 170°S
Pressure: 30.05"   Gusts: NA
Location:  37.47°N, 96.26°W
Report Text: KIDP 251215Z AUTO 17004KT 1/4SM FG VV002 13/12 A3005 RMK AO2
Loading
Personal Weather Stations






























Interactive Weather Map
Tropical Storm Tracking
New forecast layout! Learn more

10-Day Weather Forecast

Advertisements
Track Severe Weather on mobile